Frankfort, Ohio
Current Conditions -  °F | °C
As of 5:14 AM on Sunday 23 Nov 2014 (Local Time) from KRZT Reporting Station
Broken Clouds Broken Clouds  
Wind Chill: 41°   Ceiling: 9000
Heat Index: 45°   Visibility: 10mi
Dew Point: 28°   Wind: 6mph
Humidity: 53%   Direction: 190°S
Pressure: 30.05"   Gusts: NA
Location:  39.4°N, 83.18°W
Report Text: KRZT 231014Z AUTO 19005KT 10SM SCT060 BKN090 07/M02 A3005 RMK AO2
Loading
Personal Weather Stations






























Interactive Weather Map New forecast layout! Learn more

10-Day Weather Forecast

Advertisements
Track Severe Weather on mobile